Portada
METAR-TAF:

METAR-TAF

Aeroports :

Suva, Fiji

latitud: 18-03S, longitud: 178-34E, altitud: 5 m

Observació

L'informe es va fer fa 37 minuts, a les 18:00 UTC
Vent 3 kt del Nord/Nord-Oest
Temperatura 22°C
Humitat 94%
Pressió 1015 hPa
Visibilitat 10 km o més
Núvols disperses a una alçada de 2000 ft
Cel ennuvolat a una alçada de 4500 ft

METAR: NFNA 171800Z 34003KT 9999 SCT020 BKN045 22/21 Q1015

Hora: 06:37 (18:37 UTC)

Pronòstic

L'informe es va fer fa 1 hora i 34 minuts, a les 17:03 UTC
Pronòstic vàlid del 17 a les 18 UTC al 18 a les 18 UTC
Vent 7 kt del Est/Sud-Est
Visibilitat 10 km o més
Núvols disperses a una alçada de 2000 ft
Cel ennuvolat a una alçada de 4500 ft

TAF: NFNA 171703Z 1718/1818 11007KT 9999 SCT020 BKN045

Observacions i pronòstics meteorològics de més de 4000 aeroports (METAR i TAF).

Les estacions disponibles són els punts grocs i vermells al mapa.

Posi el ratolí al punt desitjat per veure el nom de l'estació.

Feu clic per veure les observacions i els pronòstics meteorològics.

Per canviar el mapa: feu clic els botons verds amb una creu de color negre per apropar; al botó verd amb un guió per allunyar la imatge; o en les fletxes verdes per a mapes adjacents.


METAR-TAF: